sensor_id;sensor_type;location;lat;lon;timestamp;P1;durP1;ratioP1;P2;durP2;ratioP2
27957;SDS011;15295;42.658;23.374;2023-03-04T00:00:24;30.58;;;18.90;;
27957;SDS011;15295;42.658;23.374;2023-03-04T00:02:49;29.05;;;18.17;;
27957;SDS011;15295;42.658;23.374;2023-03-04T00:05:15;31.50;;;19.08;;
27957;SDS011;15295;42.658;23.374;2023-03-04T00:07:40;27.65;;;17.95;;
27957;SDS011;15295;42.658;23.374;2023-03-04T00:10:11;30.35;;;19.35;;
27957;SDS011;15295;42.658;23.374;2023-03-04T00:12:40;27.98;;;17.70;;
27957;SDS011;15295;42.658;23.374;2023-03-04T00:15:07;30.13;;;19.13;;
27957;SDS011;15295;42.658;23.374;2023-03-04T00:17:36;27.30;;;17.00;;
27957;SDS011;15295;42.658;23.374;2023-03-04T00:22:35;29.83;;;17.58;;
27957;SDS011;15295;42.658;23.374;2023-03-04T00:25:06;28.63;;;17.08;;
27957;SDS011;15295;42.658;23.374;2023-03-04T00:27:32;27.27;;;16.73;;
27957;SDS011;15295;42.658;23.374;2023-03-04T00:32:36;25.90;;;16.55;;
27957;SDS011;15295;42.658;23.374;2023-03-04T00:35:02;28.38;;;16.70;;
27957;SDS011;15295;42.658;23.374;2023-03-04T00:37:29;27.58;;;17.88;;
27957;SDS011;15295;42.658;23.374;2023-03-04T00:40:01;26.67;;;15.70;;
27957;SDS011;15295;42.658;23.374;2023-03-04T00:42:26;24.70;;;16.60;;
27957;SDS011;15295;42.658;23.374;2023-03-04T00:44:55;29.42;;;15.82;;
27957;SDS011;15295;42.658;23.374;2023-03-04T00:47:21;26.23;;;16.63;;
27957;SDS011;15295;42.658;23.374;2023-03-04T00:49:47;26.15;;;16.15;;
27957;SDS011;15295;42.658;23.374;2023-03-04T00:54:52;27.13;;;16.15;;
27957;SDS011;15295;42.658;23.374;2023-03-04T00:57:17;28.23;;;15.73;;
27957;SDS011;15295;42.658;23.374;2023-03-04T00:59:43;27.02;;;16.50;;
27957;SDS011;15295;42.658;23.374;2023-03-04T01:02:10;26.33;;;16.10;;
27957;SDS011;15295;42.658;23.374;2023-03-04T01:07:11;25.15;;;15.35;;
27957;SDS011;15295;42.658;23.374;2023-03-04T01:12:21;26.63;;;15.88;;
27957;SDS011;15295;42.658;23.374;2023-03-04T01:14:46;26.20;;;16.40;;
27957;SDS011;15295;42.658;23.374;2023-03-04T01:19:48;25.67;;;15.88;;
27957;SDS011;15295;42.658;23.374;2023-03-04T01:22:14;27.10;;;17.67;;
27957;SDS011;15295;42.658;23.374;2023-03-04T01:24:41;26.77;;;16.25;;
27957;SDS011;15295;42.658;23.374;2023-03-04T01:27:07;24.85;;;16.05;;
27957;SDS011;15295;42.658;23.374;2023-03-04T01:29:34;28.73;;;17.42;;
27957;SDS011;15295;42.658;23.374;2023-03-04T01:32:08;25.92;;;16.60;;
27957;SDS011;15295;42.658;23.374;2023-03-04T01:34:34;29.55;;;17.33;;
27957;SDS011;15295;42.658;23.374;2023-03-04T01:37:17;29.20;;;17.38;;
27957;SDS011;15295;42.658;23.374;2023-03-04T01:40:02;27.52;;;16.77;;
27957;SDS011;15295;42.658;23.374;2023-03-04T01:42:47;27.63;;;17.40;;
27957;SDS011;15295;42.658;23.374;2023-03-04T01:45:24;26.95;;;17.40;;
27957;SDS011;15295;42.658;23.374;2023-03-04T01:47:50;27.15;;;15.43;;
27957;SDS011;15295;42.658;23.374;2023-03-04T01:50:20;26.45;;;15.38;;
27957;SDS011;15295;42.658;23.374;2023-03-04T01:53:09;25.63;;;15.57;;
27957;SDS011;15295;42.658;23.374;2023-03-04T01:59:08;26.20;;;15.85;;
27957;SDS011;15295;42.658;23.374;2023-03-04T02:01:59;28.20;;;16.40;;
27957;SDS011;15295;42.658;23.374;2023-03-04T02:04:40;24.33;;;15.23;;
27957;SDS011;15295;42.658;23.374;2023-03-04T02:07:18;26.27;;;15.55;;
27957;SDS011;15295;42.658;23.374;2023-03-04T02:09:44;27.65;;;16.08;;
27957;SDS011;15295;42.658;23.374;2023-03-04T02:17:51;24.73;;;15.10;;
27957;SDS011;15295;42.658;23.374;2023-03-04T02:26:20;27.48;;;16.38;;
27957;SDS011;15295;42.658;23.374;2023-03-04T02:28:53;26.00;;;15.27;;
27957;SDS011;15295;42.658;23.374;2023-03-04T02:34:33;26.52;;;15.48;;
27957;SDS011;15295;42.658;23.374;2023-03-04T02:37:00;26.70;;;15.98;;
27957;SDS011;15295;42.658;23.374;2023-03-04T02:39:31;25.42;;;16.02;;
27957;SDS011;15295;42.658;23.374;2023-03-04T02:41:59;29.50;;;17.85;;
27957;SDS011;15295;42.658;23.374;2023-03-04T02:44:26;28.48;;;16.20;;
27957;SDS011;15295;42.658;23.374;2023-03-04T02:46:55;28.70;;;16.48;;
27957;SDS011;15295;42.658;23.374;2023-03-04T02:49:23;27.67;;;16.92;;
27957;SDS011;15295;42.658;23.374;2023-03-04T02:54:42;27.45;;;16.40;;
27957;SDS011;15295;42.658;23.374;2023-03-04T02:57:10;26.30;;;16.40;;
27957;SDS011;15295;42.658;23.374;2023-03-04T02:59:37;27.73;;;16.83;;
27957;SDS011;15295;42.658;23.374;2023-03-04T03:02:05;26.55;;;15.93;;
27957;SDS011;15295;42.658;23.374;2023-03-04T03:04:32;27.40;;;17.17;;
27957;SDS011;15295;42.658;23.374;2023-03-04T03:07:00;28.48;;;17.20;;
27957;SDS011;15295;42.658;23.374;2023-03-04T03:09:29;28.90;;;17.23;;
27957;SDS011;15295;42.658;23.374;2023-03-04T03:12:03;25.23;;;16.05;;
27957;SDS011;15295;42.658;23.374;2023-03-04T03:14:30;29.38;;;16.85;;
27957;SDS011;15295;42.658;23.374;2023-03-04T03:16:57;24.73;;;15.45;;
27957;SDS011;15295;42.658;23.374;2023-03-04T03:22:02;28.65;;;16.65;;
27957;SDS011;15295;42.658;23.374;2023-03-04T03:24:29;28.15;;;16.08;;
27957;SDS011;15295;42.658;23.374;2023-03-04T03:26:58;27.30;;;16.55;;
27957;SDS011;15295;42.658;23.374;2023-03-04T03:29:28;27.75;;;16.98;;
27957;SDS011;15295;42.658;23.374;2023-03-04T03:31:53;25.67;;;16.02;;
27957;SDS011;15295;42.658;23.374;2023-03-04T03:34:49;26.52;;;15.88;;
27957;SDS011;15295;42.658;23.374;2023-03-04T03:37:16;29.10;;;16.73;;
27957;SDS011;15295;42.658;23.374;2023-03-04T03:39:43;28.35;;;16.05;;
27957;SDS011;15295;42.658;23.374;2023-03-04T03:42:10;26.00;;;15.70;;
27957;SDS011;15295;42.658;23.374;2023-03-04T03:44:41;25.85;;;16.88;;
27957;SDS011;15295;42.658;23.374;2023-03-04T03:47:06;30.02;;;16.65;;
27957;SDS011;15295;42.658;23.374;2023-03-04T03:49:32;26.38;;;15.98;;
27957;SDS011;15295;42.658;23.374;2023-03-04T03:52:01;28.35;;;17.02;;
27957;SDS011;15295;42.658;23.374;2023-03-04T03:54:28;26.33;;;16.58;;
27957;SDS011;15295;42.658;23.374;2023-03-04T03:56:54;29.85;;;17.60;;
27957;SDS011;15295;42.658;23.374;2023-03-04T03:59:20;27.50;;;16.65;;
27957;SDS011;15295;42.658;23.374;2023-03-04T04:01:51;31.27;;;17.33;;
27957;SDS011;15295;42.658;23.374;2023-03-04T04:04:21;26.83;;;16.50;;
27957;SDS011;15295;42.658;23.374;2023-03-04T04:06:53;27.15;;;16.90;;
27957;SDS011;15295;42.658;23.374;2023-03-04T04:09:22;30.38;;;17.08;;
27957;SDS011;15295;42.658;23.374;2023-03-04T04:11:53;25.65;;;16.05;;
27957;SDS011;15295;42.658;23.374;2023-03-04T04:14:22;31.55;;;17.85;;
27957;SDS011;15295;42.658;23.374;2023-03-04T04:16:48;29.58;;;16.80;;
27957;SDS011;15295;42.658;23.374;2023-03-04T04:19:17;28.70;;;17.00;;
27957;SDS011;15295;42.658;23.374;2023-03-04T04:21:47;30.27;;;17.23;;
27957;SDS011;15295;42.658;23.374;2023-03-04T04:27:02;31.30;;;17.85;;
27957;SDS011;15295;42.658;23.374;2023-03-04T04:29:29;30.45;;;17.75;;
27957;SDS011;15295;42.658;23.374;2023-03-04T04:31:54;29.00;;;17.40;;
27957;SDS011;15295;42.658;23.374;2023-03-04T04:34:20;30.45;;;17.73;;
27957;SDS011;15295;42.658;23.374;2023-03-04T04:36:45;33.60;;;18.08;;
27957;SDS011;15295;42.658;23.374;2023-03-04T04:39:12;29.00;;;18.35;;
27957;SDS011;15295;42.658;23.374;2023-03-04T04:41:38;30.80;;;18.80;;
27957;SDS011;15295;42.658;23.374;2023-03-04T04:44:06;32.50;;;19.08;;
27957;SDS011;15295;42.658;23.374;2023-03-04T04:46:31;37.65;;;20.27;;
27957;SDS011;15295;42.658;23.374;2023-03-04T04:48:57;29.88;;;18.05;;
27957;SDS011;15295;42.658;23.374;2023-03-04T04:51:23;32.20;;;18.45;;
27957;SDS011;15295;42.658;23.374;2023-03-04T04:53:52;32.72;;;18.88;;
27957;SDS011;15295;42.658;23.374;2023-03-04T05:01:41;34.13;;;18.55;;
27957;SDS011;15295;42.658;23.374;2023-03-04T05:04:21;32.00;;;18.33;;
27957;SDS011;15295;42.658;23.374;2023-03-04T05:06:50;33.05;;;17.80;;
27957;SDS011;15295;42.658;23.374;2023-03-04T05:09:15;27.23;;;15.80;;
27957;SDS011;15295;42.658;23.374;2023-03-04T05:11:41;27.40;;;16.23;;
27957;SDS011;15295;42.658;23.374;2023-03-04T05:14:13;29.60;;;16.15;;
27957;SDS011;15295;42.658;23.374;2023-03-04T05:16:38;31.35;;;16.00;;
27957;SDS011;15295;42.658;23.374;2023-03-04T05:19:04;27.90;;;15.95;;
27957;SDS011;15295;42.658;23.374;2023-03-04T05:21:29;27.67;;;15.98;;
27957;SDS011;15295;42.658;23.374;2023-03-04T05:23:56;29.58;;;17.85;;
27957;SDS011;15295;42.658;23.374;2023-03-04T05:26:21;32.45;;;17.25;;
27957;SDS011;15295;42.658;23.374;2023-03-04T05:29:14;29.38;;;17.52;;
27957;SDS011;15295;42.658;23.374;2023-03-04T05:31:43;28.67;;;16.90;;
27957;SDS011;15295;42.658;23.374;2023-03-04T05:34:14;31.60;;;16.45;;
27957;SDS011;15295;42.658;23.374;2023-03-04T05:36:43;28.00;;;17.30;;
27957;SDS011;15295;42.658;23.374;2023-03-04T05:39:15;29.88;;;17.15;;
27957;SDS011;15295;42.658;23.374;2023-03-04T05:41:43;31.75;;;17.50;;
27957;SDS011;15295;42.658;23.374;2023-03-04T05:46:47;30.92;;;18.10;;
27957;SDS011;15295;42.658;23.374;2023-03-04T05:49:12;30.58;;;18.02;;
27957;SDS011;15295;42.658;23.374;2023-03-04T05:51:37;32.33;;;17.58;;
27957;SDS011;15295;42.658;23.374;2023-03-04T05:54:03;33.63;;;18.92;;
27957;SDS011;15295;42.658;23.374;2023-03-04T05:56:33;32.42;;;17.70;;
27957;SDS011;15295;42.658;23.374;2023-03-04T05:58:59;31.67;;;18.65;;
27957;SDS011;15295;42.658;23.374;2023-03-04T06:01:25;30.38;;;17.48;;
27957;SDS011;15295;42.658;23.374;2023-03-04T06:03:50;32.00;;;17.08;;
27957;SDS011;15295;42.658;23.374;2023-03-04T06:06:15;33.58;;;16.70;;
27957;SDS011;15295;42.658;23.374;2023-03-04T06:08:41;29.88;;;17.65;;
27957;SDS011;15295;42.658;23.374;2023-03-04T06:11:07;35.15;;;16.63;;
27957;SDS011;15295;42.658;23.374;2023-03-04T06:13:32;30.70;;;17.45;;
27957;SDS011;15295;42.658;23.374;2023-03-04T06:16:00;37.78;;;19.42;;
27957;SDS011;15295;42.658;23.374;2023-03-04T06:18:26;32.92;;;18.02;;
27957;SDS011;15295;42.658;23.374;2023-03-04T06:20:56;33.42;;;18.40;;
27957;SDS011;15295;42.658;23.374;2023-03-04T06:23:23;27.33;;;16.63;;
27957;SDS011;15295;42.658;23.374;2023-03-04T06:25:52;32.92;;;17.75;;
27957;SDS011;15295;42.658;23.374;2023-03-04T06:28:18;28.42;;;16.48;;
27957;SDS011;15295;42.658;23.374;2023-03-04T06:30:45;26.33;;;15.63;;
27957;SDS011;15295;42.658;23.374;2023-03-04T06:33:18;31.75;;;15.43;;
27957;SDS011;15295;42.658;23.374;2023-03-04T06:35:44;27.17;;;14.77;;
27957;SDS011;15295;42.658;23.374;2023-03-04T06:38:10;29.50;;;15.25;;
27957;SDS011;15295;42.658;23.374;2023-03-04T06:40:35;27.73;;;14.40;;
27957;SDS011;15295;42.658;23.374;2023-03-04T06:43:01;25.75;;;14.65;;
27957;SDS011;15295;42.658;23.374;2023-03-04T06:45:28;25.02;;;14.93;;
27957;SDS011;15295;42.658;23.374;2023-03-04T06:47:54;24.95;;;14.45;;
27957;SDS011;15295;42.658;23.374;2023-03-04T06:50:19;27.90;;;15.00;;
27957;SDS011;15295;42.658;23.374;2023-03-04T06:52:45;24.63;;;14.43;;
27957;SDS011;15295;42.658;23.374;2023-03-04T06:55:12;24.10;;;13.95;;
27957;SDS011;15295;42.658;23.374;2023-03-04T06:57:38;27.65;;;15.23;;
27957;SDS011;15295;42.658;23.374;2023-03-04T07:00:04;33.53;;;16.83;;
27957;SDS011;15295;42.658;23.374;2023-03-04T07:02:32;26.98;;;14.40;;
27957;SDS011;15295;42.658;23.374;2023-03-04T07:04:57;26.35;;;14.75;;
27957;SDS011;15295;42.658;23.374;2023-03-04T07:07:22;26.98;;;15.23;;
27957;SDS011;15295;42.658;23.374;2023-03-04T07:09:50;27.83;;;14.63;;
27957;SDS011;15295;42.658;23.374;2023-03-04T07:12:15;23.50;;;14.48;;
27957;SDS011;15295;42.658;23.374;2023-03-04T07:14:41;23.85;;;14.50;;
27957;SDS011;15295;42.658;23.374;2023-03-04T07:17:20;23.08;;;14.23;;
27957;SDS011;15295;42.658;23.374;2023-03-04T07:19:46;27.58;;;15.77;;
27957;SDS011;15295;42.658;23.374;2023-03-04T07:22:11;26.42;;;15.65;;
27957;SDS011;15295;42.658;23.374;2023-03-04T07:24:38;27.63;;;15.35;;
27957;SDS011;15295;42.658;23.374;2023-03-04T07:27:11;26.15;;;14.63;;
27957;SDS011;15295;42.658;23.374;2023-03-04T07:29:36;27.65;;;15.43;;
27957;SDS011;15295;42.658;23.374;2023-03-04T07:32:05;24.92;;;15.40;;
27957;SDS011;15295;42.658;23.374;2023-03-04T07:34:31;33.10;;;17.75;;
27957;SDS011;15295;42.658;23.374;2023-03-04T07:36:57;30.67;;;17.00;;
27957;SDS011;15295;42.658;23.374;2023-03-04T07:39:25;32.50;;;18.33;;
27957;SDS011;15295;42.658;23.374;2023-03-04T07:41:52;29.38;;;16.60;;
27957;SDS011;15295;42.658;23.374;2023-03-04T07:44:18;33.70;;;17.73;;
27957;SDS011;15295;42.658;23.374;2023-03-04T07:46:43;35.42;;;19.00;;
27957;SDS011;15295;42.658;23.374;2023-03-04T07:49:11;28.85;;;16.95;;
27957;SDS011;15295;42.658;23.374;2023-03-04T07:51:37;34.17;;;18.95;;
27957;SDS011;15295;42.658;23.374;2023-03-04T07:54:03;35.03;;;18.92;;
27957;SDS011;15295;42.658;23.374;2023-03-04T07:56:31;34.42;;;19.90;;
27957;SDS011;15295;42.658;23.374;2023-03-04T07:58:58;52.13;;;24.73;;
27957;SDS011;15295;42.658;23.374;2023-03-04T08:01:28;41.33;;;22.70;;
27957;SDS011;15295;42.658;23.374;2023-03-04T08:03:55;40.33;;;22.55;;
27957;SDS011;15295;42.658;23.374;2023-03-04T08:06:21;33.28;;;20.27;;
27957;SDS011;15295;42.658;23.374;2023-03-04T08:11:27;32.85;;;19.73;;
27957;SDS011;15295;42.658;23.374;2023-03-04T08:13:56;43.05;;;21.23;;
27957;SDS011;15295;42.658;23.374;2023-03-04T08:16:25;34.90;;;20.83;;
27957;SDS011;15295;42.658;23.374;2023-03-04T08:18:52;39.92;;;21.80;;
27957;SDS011;15295;42.658;23.374;2023-03-04T08:21:44;39.83;;;21.17;;
27957;SDS011;15295;42.658;23.374;2023-03-04T08:24:10;38.88;;;21.45;;
27957;SDS011;15295;42.658;23.374;2023-03-04T08:26:54;37.05;;;21.45;;
27957;SDS011;15295;42.658;23.374;2023-03-04T08:29:21;40.85;;;21.35;;
27957;SDS011;15295;42.658;23.374;2023-03-04T08:31:50;35.25;;;21.58;;
27957;SDS011;15295;42.658;23.374;2023-03-04T08:34:20;38.22;;;21.85;;
27957;SDS011;15295;42.658;23.374;2023-03-04T08:36:56;39.17;;;20.42;;
27957;SDS011;15295;42.658;23.374;2023-03-04T08:39:22;37.50;;;22.80;;
27957;SDS011;15295;42.658;23.374;2023-03-04T08:42:00;38.55;;;21.95;;
27957;SDS011;15295;42.658;23.374;2023-03-04T08:47:00;38.17;;;22.65;;
27957;SDS011;15295;42.658;23.374;2023-03-04T08:49:26;40.70;;;24.17;;
27957;SDS011;15295;42.658;23.374;2023-03-04T08:51:51;41.15;;;24.73;;
27957;SDS011;15295;42.658;23.374;2023-03-04T08:54:16;41.75;;;23.75;;
27957;SDS011;15295;42.658;23.374;2023-03-04T08:56:42;47.65;;;26.85;;
27957;SDS011;15295;42.658;23.374;2023-03-04T08:59:07;47.30;;;26.65;;
27957;SDS011;15295;42.658;23.374;2023-03-04T09:01:33;47.90;;;27.48;;
27957;SDS011;15295;42.658;23.374;2023-03-04T09:03:58;45.10;;;27.58;;
27957;SDS011;15295;42.658;23.374;2023-03-04T09:06:24;53.90;;;31.67;;
27957;SDS011;15295;42.658;23.374;2023-03-04T09:08:51;47.38;;;27.15;;
27957;SDS011;15295;42.658;23.374;2023-03-04T09:11:17;47.67;;;26.38;;
27957;SDS011;15295;42.658;23.374;2023-03-04T09:13:42;41.83;;;24.73;;
27957;SDS011;15295;42.658;23.374;2023-03-04T09:16:26;49.20;;;26.83;;
27957;SDS011;15295;42.658;23.374;2023-03-04T09:21:34;39.38;;;23.95;;
27957;SDS011;15295;42.658;23.374;2023-03-04T09:23:59;40.50;;;24.50;;
27957;SDS011;15295;42.658;23.374;2023-03-04T09:26:25;40.08;;;24.45;;
27957;SDS011;15295;42.658;23.374;2023-03-04T09:28:53;42.25;;;21.48;;
27957;SDS011;15295;42.658;23.374;2023-03-04T09:40:42;39.30;;;21.30;;
27957;SDS011;15295;42.658;23.374;2023-03-04T09:43:11;35.58;;;21.55;;
27957;SDS011;15295;42.658;23.374;2023-03-04T09:45:46;42.63;;;23.67;;
27957;SDS011;15295;42.658;23.374;2023-03-04T09:48:16;33.25;;;19.42;;
27957;SDS011;15295;42.658;23.374;2023-03-04T09:50:53;36.67;;;21.20;;
27957;SDS011;15295;42.658;23.374;2023-03-04T09:56:27;32.88;;;20.77;;
27957;SDS011;15295;42.658;23.374;2023-03-04T09:59:04;35.70;;;18.83;;
27957;SDS011;15295;42.658;23.374;2023-03-04T10:01:54;39.33;;;20.45;;
27957;SDS011;15295;42.658;23.374;2023-03-04T10:04:39;37.53;;;20.80;;
27957;SDS011;15295;42.658;23.374;2023-03-04T10:07:22;37.73;;;22.43;;
27957;SDS011;15295;42.658;23.374;2023-03-04T10:12:37;38.97;;;20.23;;
27957;SDS011;15295;42.658;23.374;2023-03-04T10:15:16;31.27;;;18.73;;
27957;SDS011;15295;42.658;23.374;2023-03-04T10:17:52;31.02;;;18.85;;
27957;SDS011;15295;42.658;23.374;2023-03-04T10:20:25;34.95;;;19.15;;
27957;SDS011;15295;42.658;23.374;2023-03-04T10:22:56;36.67;;;19.92;;
27957;SDS011;15295;42.658;23.374;2023-03-04T10:25:26;37.75;;;21.80;;
27957;SDS011;15295;42.658;23.374;2023-03-04T10:27:57;43.03;;;24.00;;
27957;SDS011;15295;42.658;23.374;2023-03-04T10:33:25;38.60;;;22.67;;
27957;SDS011;15295;42.658;23.374;2023-03-04T10:36:02;46.42;;;23.70;;
27957;SDS011;15295;42.658;23.374;2023-03-04T10:38:38;41.00;;;23.42;;
27957;SDS011;15295;42.658;23.374;2023-03-04T10:43:33;39.83;;;22.65;;
27957;SDS011;15295;42.658;23.374;2023-03-04T11:08:55;33.00;;;19.67;;
27957;SDS011;15295;42.658;23.374;2023-03-04T11:11:27;37.55;;;20.60;;
27957;SDS011;15295;42.658;23.374;2023-03-04T11:13:55;33.53;;;20.70;;
27957;SDS011;15295;42.658;23.374;2023-03-04T11:16:28;36.25;;;21.73;;
27957;SDS011;15295;42.658;23.374;2023-03-04T11:19:05;36.35;;;20.05;;
27957;SDS011;15295;42.658;23.374;2023-03-04T11:21:40;37.53;;;20.30;;
27957;SDS011;15295;42.658;23.374;2023-03-04T11:24:10;34.67;;;20.73;;
27957;SDS011;15295;42.658;23.374;2023-03-04T11:26:47;38.92;;;24.48;;
27957;SDS011;15295;42.658;23.374;2023-03-04T11:29:31;40.40;;;22.25;;
27957;SDS011;15295;42.658;23.374;2023-03-04T11:32:19;33.13;;;19.67;;
27957;SDS011;15295;42.658;23.374;2023-03-04T11:34:55;37.35;;;19.73;;
27957;SDS011;15295;42.658;23.374;2023-03-04T11:45:12;42.42;;;20.92;;
27957;SDS011;15295;42.658;23.374;2023-03-04T12:01:14;48.05;;;24.70;;
27957;SDS011;15295;42.658;23.374;2023-03-04T12:04:06;38.03;;;20.55;;
27957;SDS011;15295;42.658;23.374;2023-03-04T12:14:38;36.70;;;20.98;;
27957;SDS011;15295;42.658;23.374;2023-03-04T12:20:27;36.13;;;20.25;;
27957;SDS011;15295;42.658;23.374;2023-03-04T12:23:28;33.78;;;20.52;;
27957;SDS011;15295;42.658;23.374;2023-03-04T12:26:10;39.42;;;20.48;;
27957;SDS011;15295;42.658;23.374;2023-03-04T12:37:26;47.63;;;24.30;;
27957;SDS011;15295;42.658;23.374;2023-03-04T12:45:43;40.10;;;21.63;;
27957;SDS011;15295;42.658;23.374;2023-03-04T12:53:27;36.67;;;20.90;;
27957;SDS011;15295;42.658;23.374;2023-03-04T12:55:57;36.67;;;20.92;;
27957;SDS011;15295;42.658;23.374;2023-03-04T12:58:28;38.75;;;19.77;;
27957;SDS011;15295;42.658;23.374;2023-03-04T13:01:02;35.10;;;20.83;;
27957;SDS011;15295;42.658;23.374;2023-03-04T13:03:38;37.70;;;19.67;;
27957;SDS011;15295;42.658;23.374;2023-03-04T13:11:32;39.75;;;20.52;;
27957;SDS011;15295;42.658;23.374;2023-03-04T13:16:51;40.85;;;21.58;;
27957;SDS011;15295;42.658;23.374;2023-03-04T13:32:55;39.28;;;21.70;;
27957;SDS011;15295;42.658;23.374;2023-03-04T13:43:55;35.60;;;20.27;;
27957;SDS011;15295;42.658;23.374;2023-03-04T13:51:32;35.15;;;19.85;;
27957;SDS011;15295;42.658;23.374;2023-03-04T13:56:35;36.67;;;20.52;;
27957;SDS011;15295;42.658;23.374;2023-03-04T14:04:18;33.88;;;20.90;;
27957;SDS011;15295;42.658;23.374;2023-03-04T14:06:53;35.50;;;20.70;;
27957;SDS011;15295;42.658;23.374;2023-03-04T14:11:52;40.72;;;22.33;;
27957;SDS011;15295;42.658;23.374;2023-03-04T14:14:25;40.08;;;20.63;;
27957;SDS011;15295;42.658;23.374;2023-03-04T14:19:32;37.33;;;20.70;;
27957;SDS011;15295;42.658;23.374;2023-03-04T14:22:02;39.10;;;21.30;;
27957;SDS011;15295;42.658;23.374;2023-03-04T14:27:48;41.25;;;21.08;;
27957;SDS011;15295;42.658;23.374;2023-03-04T14:30:19;36.72;;;21.27;;
27957;SDS011;15295;42.658;23.374;2023-03-04T14:32:46;42.10;;;22.00;;
27957;SDS011;15295;42.658;23.374;2023-03-04T14:35:19;42.33;;;24.02;;
27957;SDS011;15295;42.658;23.374;2023-03-04T14:38:34;37.67;;;21.08;;
27957;SDS011;15295;42.658;23.374;2023-03-04T14:40:41;35.70;;;19.73;;
27957;SDS011;15295;42.658;23.374;2023-03-04T14:43:20;42.45;;;22.25;;
27957;SDS011;15295;42.658;23.374;2023-03-04T14:45:51;42.20;;;20.73;;
27957;SDS011;15295;42.658;23.374;2023-03-04T14:48:24;33.75;;;20.90;;
27957;SDS011;15295;42.658;23.374;2023-03-04T14:50:53;38.92;;;21.05;;
27957;SDS011;15295;42.658;23.374;2023-03-04T14:53:21;37.20;;;22.38;;
27957;SDS011;15295;42.658;23.374;2023-03-04T14:58:24;43.78;;;22.55;;
27957;SDS011;15295;42.658;23.374;2023-03-04T15:04:06;31.73;;;19.58;;
27957;SDS011;15295;42.658;23.374;2023-03-04T15:06:38;35.38;;;20.92;;
27957;SDS011;15295;42.658;23.374;2023-03-04T15:09:22;39.47;;;21.23;;
27957;SDS011;15295;42.658;23.374;2023-03-04T15:17:31;40.67;;;21.45;;
27957;SDS011;15295;42.658;23.374;2023-03-04T15:22:30;36.90;;;20.98;;
27957;SDS011;15295;42.658;23.374;2023-03-04T15:24:59;44.08;;;23.08;;
27957;SDS011;15295;42.658;23.374;2023-03-04T15:27:25;38.15;;;22.48;;
27957;SDS011;15295;42.658;23.374;2023-03-04T15:29:52;36.72;;;21.95;;
27957;SDS011;15295;42.658;23.374;2023-03-04T15:32:29;40.67;;;21.13;;
27957;SDS011;15295;42.658;23.374;2023-03-04T15:34:55;35.85;;;21.23;;
27957;SDS011;15295;42.658;23.374;2023-03-04T15:37:22;38.28;;;23.23;;
27957;SDS011;15295;42.658;23.374;2023-03-04T15:39:50;40.45;;;23.40;;
27957;SDS011;15295;42.658;23.374;2023-03-04T15:42:17;36.40;;;22.13;;
27957;SDS011;15295;42.658;23.374;2023-03-04T15:44:43;40.45;;;22.58;;
27957;SDS011;15295;42.658;23.374;2023-03-04T15:47:11;36.55;;;21.60;;
27957;SDS011;15295;42.658;23.374;2023-03-04T15:49:38;35.42;;;21.02;;
27957;SDS011;15295;42.658;23.374;2023-03-04T15:52:16;39.20;;;22.17;;
27957;SDS011;15295;42.658;23.374;2023-03-04T15:54:46;38.50;;;21.75;;
27957;SDS011;15295;42.658;23.374;2023-03-04T15:57:16;35.72;;;22.33;;
27957;SDS011;15295;42.658;23.374;2023-03-04T15:59:48;41.00;;;23.45;;
27957;SDS011;15295;42.658;23.374;2023-03-04T16:02:18;40.60;;;22.65;;
27957;SDS011;15295;42.658;23.374;2023-03-04T16:04:46;43.03;;;22.70;;
27957;SDS011;15295;42.658;23.374;2023-03-04T16:07:19;38.22;;;21.85;;
27957;SDS011;15295;42.658;23.374;2023-03-04T16:09:53;39.90;;;21.63;;
27957;SDS011;15295;42.658;23.374;2023-03-04T16:12:20;39.90;;;22.30;;
27957;SDS011;15295;42.658;23.374;2023-03-04T16:14:46;39.20;;;23.45;;
27957;SDS011;15295;42.658;23.374;2023-03-04T16:17:13;42.08;;;22.73;;
27957;SDS011;15295;42.658;23.374;2023-03-04T16:19:41;43.15;;;23.65;;
27957;SDS011;15295;42.658;23.374;2023-03-04T16:22:14;38.72;;;22.48;;
27957;SDS011;15295;42.658;23.374;2023-03-04T16:24:41;44.70;;;22.85;;
27957;SDS011;15295;42.658;23.374;2023-03-04T16:27:10;40.67;;;22.42;;
27957;SDS011;15295;42.658;23.374;2023-03-04T16:29:38;43.20;;;22.52;;
27957;SDS011;15295;42.658;23.374;2023-03-04T16:32:03;37.85;;;22.05;;
27957;SDS011;15295;42.658;23.374;2023-03-04T16:34:29;39.10;;;20.92;;
27957;SDS011;15295;42.658;23.374;2023-03-04T16:36:55;33.95;;;19.20;;
27957;SDS011;15295;42.658;23.374;2023-03-04T16:39:22;41.13;;;20.25;;
27957;SDS011;15295;42.658;23.374;2023-03-04T16:41:50;34.10;;;19.65;;
27957;SDS011;15295;42.658;23.374;2023-03-04T16:44:16;37.30;;;19.27;;
27957;SDS011;15295;42.658;23.374;2023-03-04T16:46:42;35.03;;;20.33;;
27957;SDS011;15295;42.658;23.374;2023-03-04T16:49:07;35.00;;;20.17;;
27957;SDS011;15295;42.658;23.374;2023-03-04T16:51:39;36.40;;;19.30;;
27957;SDS011;15295;42.658;23.374;2023-03-04T16:54:13;34.63;;;18.50;;
27957;SDS011;15295;42.658;23.374;2023-03-04T16:56:46;43.83;;;19.30;;
27957;SDS011;15295;42.658;23.374;2023-03-04T16:59:15;36.78;;;19.67;;
27957;SDS011;15295;42.658;23.374;2023-03-04T17:01:41;37.40;;;20.27;;
27957;SDS011;15295;42.658;23.374;2023-03-04T17:04:06;33.83;;;19.42;;
27957;SDS011;15295;42.658;23.374;2023-03-04T17:06:32;31.95;;;19.00;;
27957;SDS011;15295;42.658;23.374;2023-03-04T17:09:00;34.22;;;20.08;;
27957;SDS011;15295;42.658;23.374;2023-03-04T17:11:25;40.88;;;22.35;;
27957;SDS011;15295;42.658;23.374;2023-03-04T17:13:51;41.30;;;21.33;;
27957;SDS011;15295;42.658;23.374;2023-03-04T17:16:16;39.05;;;21.98;;
27957;SDS011;15295;42.658;23.374;2023-03-04T17:18:42;39.10;;;21.65;;
27957;SDS011;15295;42.658;23.374;2023-03-04T17:21:10;39.25;;;21.55;;
27957;SDS011;15295;42.658;23.374;2023-03-04T17:23:38;37.95;;;21.83;;
27957;SDS011;15295;42.658;23.374;2023-03-04T17:26:03;42.35;;;22.15;;
27957;SDS011;15295;42.658;23.374;2023-03-04T17:28:30;45.50;;;23.92;;
27957;SDS011;15295;42.658;23.374;2023-03-04T17:30:55;54.70;;;22.88;;
27957;SDS011;15295;42.658;23.374;2023-03-04T17:33:22;38.90;;;23.40;;
27957;SDS011;15295;42.658;23.374;2023-03-04T17:35:51;43.65;;;23.60;;
27957;SDS011;15295;42.658;23.374;2023-03-04T17:38:16;44.92;;;23.23;;
27957;SDS011;15295;42.658;23.374;2023-03-04T17:40:45;58.38;;;28.00;;
27957;SDS011;15295;42.658;23.374;2023-03-04T17:43:16;47.58;;;27.90;;
27957;SDS011;15295;42.658;23.374;2023-03-04T17:46:00;81.97;;;39.63;;
27957;SDS011;15295;42.658;23.374;2023-03-04T17:48:42;59.72;;;32.40;;
27957;SDS011;15295;42.658;23.374;2023-03-04T17:51:07;63.67;;;33.58;;
27957;SDS011;15295;42.658;23.374;2023-03-04T17:53:34;66.63;;;34.70;;
27957;SDS011;15295;42.658;23.374;2023-03-04T17:56:06;64.07;;;33.50;;
27957;SDS011;15295;42.658;23.374;2023-03-04T17:58:36;67.38;;;34.33;;
27957;SDS011;15295;42.658;23.374;2023-03-04T18:03:28;64.03;;;34.10;;